createdAt,value
2022-12-17T00:01:45.459Z,-4.80
2022-12-17T00:04:30.409Z,-5.10
2022-12-17T00:07:15.436Z,-4.80
2022-12-17T00:10:00.437Z,-4.80
2022-12-17T00:12:45.678Z,-4.80
2022-12-17T00:15:30.752Z,-4.90
2022-12-17T00:18:25.359Z,-4.90
2022-12-17T00:21:18.225Z,-4.90
2022-12-17T00:24:03.357Z,-4.80
2022-12-17T00:26:48.570Z,-4.60
2022-12-17T00:29:33.619Z,-4.60
2022-12-17T00:32:18.659Z,-4.60
2022-12-17T00:35:03.747Z,-4.70
2022-12-17T00:37:49.064Z,-4.80
2022-12-17T00:40:34.076Z,-4.80
2022-12-17T00:43:23.241Z,-4.90
2022-12-17T00:46:08.702Z,-5.00
2022-12-17T00:48:53.848Z,-4.90
2022-12-17T00:51:39.353Z,-5.00
2022-12-17T00:54:24.258Z,-4.80
2022-12-17T00:57:09.973Z,-4.70
2022-12-17T00:59:55.047Z,-4.70
2022-12-17T01:02:41.425Z,-4.80
2022-12-17T01:05:27.112Z,-4.90
2022-12-17T01:08:12.122Z,-4.60
2022-12-17T01:10:57.240Z,-4.70
2022-12-17T01:13:42.297Z,-4.70
2022-12-17T01:16:32.162Z,-4.60
2022-12-17T01:19:17.842Z,-4.80
2022-12-17T01:22:06.058Z,-4.60
2022-12-17T01:24:51.101Z,-4.60
2022-12-17T01:27:36.908Z,-4.60
2022-12-17T01:30:22.314Z,-4.70
2022-12-17T01:33:07.300Z,-4.80
2022-12-17T01:35:52.384Z,-4.90
2022-12-17T01:38:38.549Z,-4.80
2022-12-17T01:41:24.127Z,-5.00
2022-12-17T01:44:09.235Z,-4.90
2022-12-17T01:46:55.831Z,-5.10
2022-12-17T01:49:42.284Z,-5.40
2022-12-17T01:52:27.870Z,-5.30
2022-12-17T01:55:12.849Z,-5.30
2022-12-17T01:57:57.801Z,-5.30
2022-12-17T02:00:50.517Z,-5.40
2022-12-17T02:03:36.867Z,-5.50
2022-12-17T02:06:32.764Z,-5.10
2022-12-17T02:09:21.331Z,-5.30
2022-12-17T02:12:09.327Z,-5.60
2022-12-17T02:15:06.819Z,-5.80
2022-12-17T02:18:05.070Z,-6.00
2022-12-17T02:20:58.174Z,-6.20
2022-12-17T02:23:58.880Z,-6.30
2022-12-17T02:27:17.433Z,-6.20
2022-12-17T02:30:13.130Z,-6.40
2022-12-17T02:32:59.769Z,-6.40
2022-12-17T02:36:08.095Z,-6.20
2022-12-17T02:38:53.276Z,-6.40
2022-12-17T02:41:47.297Z,-6.70
2022-12-17T02:44:34.302Z,-6.80
2022-12-17T02:47:20.424Z,-6.80
2022-12-17T02:50:05.344Z,-7.00
2022-12-17T02:52:50.569Z,-7.30
2022-12-17T02:55:35.471Z,-7.20
2022-12-17T02:58:20.578Z,-7.10
2022-12-17T03:01:05.867Z,-6.70
2022-12-17T03:03:50.830Z,-6.70
2022-12-17T03:06:36.019Z,-6.70
2022-12-17T03:09:20.945Z,-6.80
2022-12-17T03:12:05.938Z,-6.90
2022-12-17T03:14:50.908Z,-6.80
2022-12-17T03:17:36.216Z,-7.10
2022-12-17T03:20:21.749Z,-7.10
2022-12-17T03:23:06.805Z,-6.90
2022-12-17T03:25:51.833Z,-6.80
2022-12-17T03:28:37.012Z,-6.90
2022-12-17T03:31:22.035Z,-7.00
2022-12-17T03:34:07.093Z,-7.00
2022-12-17T03:36:52.392Z,-6.90
2022-12-17T03:39:37.349Z,-7.10
2022-12-17T03:42:22.304Z,-7.40
2022-12-17T03:45:07.432Z,-7.60
2022-12-17T03:47:52.390Z,-7.70
2022-12-17T03:50:37.456Z,-7.70
2022-12-17T03:53:22.947Z,-7.70
2022-12-17T03:56:08.119Z,-7.80
2022-12-17T03:58:53.110Z,-7.90
2022-12-17T04:01:38.200Z,-7.70
2022-12-17T04:04:23.446Z,-7.70
2022-12-17T04:07:08.413Z,-7.70
2022-12-17T04:09:57.914Z,-7.70
2022-12-17T04:12:43.140Z,-8.00
2022-12-17T04:15:28.528Z,-8.10
2022-12-17T04:18:13.698Z,-8.00
2022-12-17T04:20:58.565Z,-8.40
2022-12-17T04:23:43.702Z,-8.40
2022-12-17T04:26:28.742Z,-8.20
2022-12-17T04:29:13.786Z,-8.60
2022-12-17T04:31:58.851Z,-8.80
2022-12-17T04:34:43.927Z,-8.60
2022-12-17T04:37:29.018Z,-8.70
2022-12-17T04:40:13.876Z,-8.60
2022-12-17T04:42:58.926Z,-8.60
2022-12-17T04:45:44.018Z,-8.90
2022-12-17T04:48:28.998Z,-8.90
2022-12-17T04:51:14.067Z,-8.90
2022-12-17T04:53:59.089Z,-8.80
2022-12-17T04:56:44.246Z,-9.00
2022-12-17T04:59:29.244Z,-9.20
2022-12-17T05:02:14.400Z,-9.10
2022-12-17T05:04:59.363Z,-9.20
2022-12-17T05:07:44.381Z,-9.00
2022-12-17T05:10:29.482Z,-9.10
2022-12-17T05:13:18.981Z,-9.30
2022-12-17T05:16:04.186Z,-9.20
2022-12-17T05:18:49.889Z,-9.30
2022-12-17T05:21:34.840Z,-9.30
2022-12-17T05:24:19.919Z,-9.30
2022-12-17T05:27:04.961Z,-9.60
2022-12-17T05:29:49.951Z,-9.30
2022-12-17T05:32:34.866Z,-9.50
2022-12-17T05:35:19.935Z,-9.40
2022-12-17T05:38:04.896Z,-9.50
2022-12-17T05:40:49.897Z,-9.40
2022-12-17T05:43:35.222Z,-9.50
2022-12-17T05:46:21.039Z,-9.70
2022-12-17T05:49:06.243Z,-9.60
2022-12-17T05:51:51.292Z,-9.50
2022-12-17T05:54:36.329Z,-9.80
2022-12-17T05:57:21.400Z,-9.50
2022-12-17T06:00:06.539Z,-9.30
2022-12-17T06:02:51.594Z,-9.50
2022-12-17T06:05:36.876Z,-9.70
2022-12-17T06:08:26.164Z,-9.70
2022-12-17T06:11:11.322Z,-9.80
2022-12-17T06:13:56.871Z,-9.80
2022-12-17T06:16:42.053Z,-9.60
2022-12-17T06:19:27.032Z,-9.60
2022-12-17T06:22:12.132Z,-9.70
2022-12-17T06:24:57.247Z,-9.50
2022-12-17T06:27:42.489Z,-9.70
2022-12-17T06:30:28.085Z,-9.60
2022-12-17T06:33:24.829Z,-9.80
2022-12-17T06:36:11.026Z,-9.90
2022-12-17T06:38:56.084Z,-9.90
2022-12-17T06:41:41.040Z,-9.90
2022-12-17T06:44:26.236Z,-9.80
2022-12-17T06:47:11.307Z,-9.80
2022-12-17T06:50:01.123Z,-10.00
2022-12-17T06:52:46.447Z,-9.90
2022-12-17T06:55:31.595Z,-9.80
2022-12-17T06:58:17.549Z,-9.90
2022-12-17T07:01:03.130Z,-9.80
2022-12-17T07:03:48.335Z,-9.90
2022-12-17T07:06:33.592Z,-9.70
2022-12-17T07:09:19.626Z,-9.90
2022-12-17T07:12:04.637Z,-10.00
2022-12-17T07:15:00.339Z,-10.20
2022-12-17T07:17:45.573Z,-10.20
2022-12-17T07:20:31.096Z,-9.90
2022-12-17T07:23:15.985Z,-10.00
2022-12-17T07:26:01.075Z,-10.20
2022-12-17T07:28:46.158Z,-10.30
2022-12-17T07:31:31.092Z,-10.50
2022-12-17T07:34:16.256Z,-10.40
2022-12-17T07:37:01.456Z,-10.40
2022-12-17T07:39:46.559Z,-10.40
2022-12-17T07:42:31.502Z,-10.30
2022-12-17T07:45:16.671Z,-10.20
2022-12-17T07:48:01.904Z,-10.10
2022-12-17T07:50:46.895Z,-10.10
2022-12-17T07:53:31.888Z,-10.20
2022-12-17T07:56:17.004Z,-10.20
2022-12-17T07:59:02.036Z,-10.30
2022-12-17T08:01:47.256Z,-10.40
2022-12-17T08:04:32.326Z,-10.30
2022-12-17T08:07:17.221Z,-10.30
2022-12-17T08:10:02.484Z,-10.40
2022-12-17T08:12:47.437Z,-10.40
2022-12-17T08:15:43.037Z,-10.50
2022-12-17T08:18:28.286Z,-10.70
2022-12-17T08:21:13.502Z,-10.40
2022-12-17T08:23:58.545Z,-10.20
2022-12-17T08:26:47.799Z,-10.10
2022-12-17T08:29:33.444Z,-10.00
2022-12-17T08:32:18.732Z,-10.00
2022-12-17T08:35:03.717Z,-10.10
2022-12-17T08:37:49.372Z,-10.20
2022-12-17T08:40:34.328Z,-10.20
2022-12-17T08:43:19.503Z,-10.00
2022-12-17T08:46:08.205Z,-9.70
2022-12-17T08:48:53.406Z,-9.60
2022-12-17T08:51:38.973Z,-9.70
2022-12-17T08:54:23.909Z,-9.60
2022-12-17T08:57:08.939Z,-9.50
2022-12-17T08:59:53.910Z,-9.60
2022-12-17T09:02:39.591Z,-9.50
2022-12-17T09:05:25.285Z,-9.40
2022-12-17T09:08:34.055Z,-9.40
2022-12-17T09:11:19.436Z,-9.40
2022-12-17T09:14:04.454Z,-9.40
2022-12-17T09:16:49.559Z,-9.30
2022-12-17T09:19:34.719Z,-9.20
2022-12-17T09:22:19.796Z,-9.10
2022-12-17T09:25:04.809Z,-9.00
2022-12-17T09:27:49.767Z,-8.90
2022-12-17T09:30:34.937Z,-8.80
2022-12-17T09:33:20.031Z,-8.70
2022-12-17T09:36:05.193Z,-8.50
2022-12-17T09:38:50.342Z,-8.40
2022-12-17T09:41:45.708Z,-8.30
2022-12-17T09:44:53.252Z,-8.20
2022-12-17T09:47:54.153Z,-8.10
2022-12-17T09:50:39.195Z,-7.90
2022-12-17T09:53:33.387Z,-7.80
2022-12-17T09:56:18.594Z,-7.80
2022-12-17T09:59:03.683Z,-7.70
2022-12-17T10:01:53.176Z,-7.60
2022-12-17T10:04:55.518Z,-7.50
2022-12-17T10:07:47.221Z,-7.20
2022-12-17T10:10:44.160Z,-7.10
2022-12-17T10:13:31.678Z,-7.00
2022-12-17T10:16:16.891Z,-6.90
2022-12-17T10:19:02.485Z,-6.60
2022-12-17T10:21:47.577Z,-6.60
2022-12-17T10:24:32.468Z,-6.60
2022-12-17T10:27:17.575Z,-6.60
2022-12-17T10:30:03.237Z,-6.50
2022-12-17T10:32:48.721Z,-6.00
2022-12-17T10:35:52.743Z,-5.60
2022-12-17T10:38:45.978Z,-5.60
2022-12-17T10:41:41.468Z,-5.70
2022-12-17T10:44:52.664Z,-5.80
2022-12-17T10:47:39.682Z,-5.70
2022-12-17T10:50:29.198Z,-5.80
2022-12-17T10:53:14.247Z,-5.70
2022-12-17T10:56:12.446Z,-5.40
2022-12-17T10:59:05.532Z,-5.20
2022-12-17T11:01:50.741Z,-5.20
2022-12-17T11:04:48.976Z,-5.00
2022-12-17T11:07:48.046Z,-4.80
2022-12-17T11:10:38.053Z,-4.80
2022-12-17T11:13:34.743Z,-4.90
2022-12-17T11:16:20.013Z,-5.00
2022-12-17T11:19:16.718Z,-5.00
2022-12-17T11:22:09.602Z,-4.90
2022-12-17T11:25:21.672Z,-4.70
2022-12-17T11:28:09.834Z,-4.60
2022-12-17T11:31:13.218Z,-4.40
2022-12-17T11:34:17.555Z,-4.40
2022-12-17T11:37:32.115Z,-4.20
2022-12-17T11:40:24.731Z,-4.00
2022-12-17T11:43:30.085Z,-4.10
2022-12-17T11:46:27.927Z,-4.10
2022-12-17T11:49:35.056Z,-4.10
2022-12-17T11:52:26.169Z,-4.00
2022-12-17T11:55:14.386Z,-4.00
2022-12-17T11:58:19.077Z,-3.70
2022-12-17T12:01:39.046Z,-3.90
2022-12-17T12:04:55.151Z,-3.90
2022-12-17T12:07:47.372Z,-3.90
2022-12-17T12:10:42.065Z,-3.70
2022-12-17T12:13:55.060Z,-3.70
2022-12-17T12:16:51.958Z,-3.70
2022-12-17T12:19:44.051Z,-3.60
2022-12-17T12:22:37.405Z,-3.60
2022-12-17T12:25:47.172Z,-3.50
2022-12-17T12:29:02.173Z,-3.60
2022-12-17T12:31:52.836Z,-3.50
2022-12-17T12:34:46.574Z,-3.50
2022-12-17T12:37:33.117Z,-3.50
2022-12-17T12:40:30.408Z,-3.40
2022-12-17T12:43:20.245Z,-3.40
2022-12-17T12:46:05.357Z,-3.30
2022-12-17T12:48:50.662Z,-3.40
2022-12-17T12:51:44.494Z,-3.40
2022-12-17T12:54:44.818Z,-3.30
2022-12-17T12:57:57.297Z,-3.20
2022-12-17T13:00:56.348Z,-3.00
2022-12-17T13:04:07.847Z,-3.20
2022-12-17T13:06:54.726Z,-3.20
2022-12-17T13:09:34.163Z,-3.30
2022-12-17T13:12:03.952Z,-3.30
2022-12-17T13:14:58.592Z,-3.20
2022-12-17T13:17:35.679Z,-3.20
2022-12-17T13:20:32.564Z,-3.30
2022-12-17T13:23:11.355Z,-3.30
2022-12-17T13:25:38.153Z,-3.30
2022-12-17T13:28:05.024Z,-3.20
2022-12-17T13:30:36.224Z,-3.20
2022-12-17T13:33:45.722Z,-3.30
2022-12-17T13:36:28.763Z,-3.40
2022-12-17T13:39:00.738Z,-3.40
2022-12-17T13:41:31.502Z,-3.40
2022-12-17T13:44:02.652Z,-3.40
2022-12-17T13:46:46.442Z,-3.30
2022-12-17T13:49:17.833Z,-3.00
2022-12-17T13:51:44.483Z,-3.00
2022-12-17T13:54:18.567Z,-3.00
2022-12-17T13:56:45.408Z,-2.80
2022-12-17T13:59:23.976Z,-2.80
2022-12-17T14:01:52.372Z,-2.90
2022-12-17T14:04:21.197Z,-2.80
2022-12-17T14:06:47.840Z,-2.90
2022-12-17T14:09:18.524Z,-3.10
2022-12-17T14:12:03.476Z,-2.90
2022-12-17T14:14:34.622Z,-2.70
2022-12-17T14:17:01.416Z,-2.60
2022-12-17T14:19:28.089Z,-2.70
2022-12-17T14:21:54.847Z,-2.90
2022-12-17T14:24:26.837Z,-2.90
2022-12-17T14:26:58.453Z,-3.10
2022-12-17T14:29:29.587Z,-3.10
2022-12-17T14:32:01.247Z,-3.00
2022-12-17T14:34:27.972Z,-3.00
2022-12-17T14:36:56.793Z,-3.00
2022-12-17T14:39:31.402Z,-2.80
2022-12-17T14:42:32.340Z,-2.80
2022-12-17T14:45:07.836Z,-2.80
2022-12-17T14:47:35.667Z,-3.00
2022-12-17T14:50:17.854Z,-3.00
2022-12-17T14:52:53.012Z,-3.00
2022-12-17T14:55:33.846Z,-3.00
2022-12-17T14:58:08.894Z,-3.00
2022-12-17T15:00:38.150Z,-3.00
2022-12-17T15:03:04.917Z,-3.30
2022-12-17T15:05:32.470Z,-3.40
2022-12-17T15:07:59.071Z,-3.60
2022-12-17T15:10:25.657Z,-3.70
2022-12-17T15:12:53.191Z,-3.80
2022-12-17T15:15:21.598Z,-3.90
2022-12-17T15:17:48.264Z,-4.00
2022-12-17T15:20:19.635Z,-4.10
2022-12-17T15:22:46.619Z,-4.20
2022-12-17T15:25:14.207Z,-4.30
2022-12-17T15:27:40.864Z,-4.40
2022-12-17T15:30:07.943Z,-4.50
2022-12-17T15:32:34.685Z,-4.60
2022-12-17T15:35:01.699Z,-4.60
2022-12-17T15:37:28.296Z,-4.70
2022-12-17T15:39:56.223Z,-4.80
2022-12-17T15:42:41.100Z,-4.90
2022-12-17T15:45:08.352Z,-4.80
2022-12-17T15:47:34.951Z,-4.90
2022-12-17T15:50:01.532Z,-5.00
2022-12-17T15:52:28.272Z,-5.00
2022-12-17T15:54:54.875Z,-5.10
2022-12-17T15:57:21.652Z,-5.10
2022-12-17T15:59:48.239Z,-5.20
2022-12-17T16:02:14.981Z,-5.30
2022-12-17T16:04:41.703Z,-5.40
2022-12-17T16:07:08.283Z,-5.40
2022-12-17T16:09:34.918Z,-5.40
2022-12-17T16:12:01.499Z,-5.50
2022-12-17T16:14:28.250Z,-5.50
2022-12-17T16:16:55.001Z,-5.50
2022-12-17T16:19:21.648Z,-5.60
2022-12-17T16:21:48.246Z,-5.60
2022-12-17T16:24:14.845Z,-5.70
2022-12-17T16:26:41.450Z,-5.70
2022-12-17T16:29:08.044Z,-5.80
2022-12-17T16:31:35.063Z,-5.90
2022-12-17T16:34:01.802Z,-5.90
2022-12-17T16:36:28.489Z,-5.90
2022-12-17T16:38:55.120Z,-5.90
2022-12-17T16:41:21.794Z,-6.00
2022-12-17T16:43:48.506Z,-6.00
2022-12-17T16:46:32.197Z,-6.10
2022-12-17T16:49:00.411Z,-6.20
2022-12-17T16:51:29.095Z,-6.30
2022-12-17T16:53:56.762Z,-6.20
2022-12-17T16:56:26.126Z,-6.30
2022-12-17T16:58:52.799Z,-6.30
2022-12-17T17:01:28.059Z,-6.40
2022-12-17T17:03:54.962Z,-6.40
2022-12-17T17:06:21.644Z,-6.50
2022-12-17T17:08:48.351Z,-6.50
2022-12-17T17:11:22.701Z,-6.70
2022-12-17T17:13:50.395Z,-6.70
2022-12-17T17:16:17.515Z,-6.70
2022-12-17T17:18:44.169Z,-6.80
2022-12-17T17:21:19.889Z,-6.80
2022-12-17T17:23:47.440Z,-6.80
2022-12-17T17:26:14.105Z,-6.90
2022-12-17T17:28:40.864Z,-6.80
2022-12-17T17:31:10.858Z,-6.90
2022-12-17T17:33:38.702Z,-6.90
2022-12-17T17:36:10.437Z,-6.90
2022-12-17T17:38:37.939Z,-6.90
2022-12-17T17:41:05.418Z,-7.10
2022-12-17T17:43:32.221Z,-7.10
2022-12-17T17:46:09.947Z,-7.10
2022-12-17T17:48:36.853Z,-7.10
2022-12-17T17:51:08.668Z,-7.10
2022-12-17T17:53:35.821Z,-7.20
2022-12-17T17:56:07.138Z,-7.20
2022-12-17T17:58:34.651Z,-7.30
2022-12-17T18:01:07.750Z,-7.30
2022-12-17T18:03:34.581Z,-7.40
2022-12-17T18:06:03.113Z,-7.60
2022-12-17T18:08:31.049Z,-7.70
2022-12-17T18:11:01.345Z,-7.60
2022-12-17T18:13:46.754Z,-7.70
2022-12-17T18:16:13.511Z,-7.90
2022-12-17T18:18:40.546Z,-7.80
2022-12-17T18:21:15.139Z,-7.80
2022-12-17T18:23:41.913Z,-7.70
2022-12-17T18:26:16.562Z,-7.70
2022-12-17T18:28:43.514Z,-7.70
2022-12-17T18:31:15.986Z,-7.70
2022-12-17T18:33:44.543Z,-7.70
2022-12-17T18:36:13.015Z,-7.70
2022-12-17T18:38:40.108Z,-7.80
2022-12-17T18:41:28.465Z,-7.80
2022-12-17T18:43:55.169Z,-7.80
2022-12-17T18:46:23.457Z,-8.00
2022-12-17T18:48:53.390Z,-8.20
2022-12-17T18:51:21.369Z,-8.30
2022-12-17T18:53:48.282Z,-8.30
2022-12-17T18:56:31.655Z,-8.20
2022-12-17T18:59:01.937Z,-8.00
2022-12-17T19:01:35.843Z,-7.80
2022-12-17T19:04:03.856Z,-7.90
2022-12-17T19:06:30.752Z,-7.90
2022-12-17T19:08:57.328Z,-8.30
2022-12-17T19:11:23.947Z,-8.30
2022-12-17T19:13:50.624Z,-8.20
2022-12-17T19:16:25.070Z,-8.20
2022-12-17T19:18:53.208Z,-8.30
2022-12-17T19:21:19.953Z,-8.50
2022-12-17T19:23:47.338Z,-8.40
2022-12-17T19:26:18.679Z,-8.50
2022-12-17T19:28:47.856Z,-8.50
2022-12-17T19:31:14.615Z,-8.40
2022-12-17T19:33:41.376Z,-8.50
2022-12-17T19:36:11.018Z,-8.40
2022-12-17T19:38:37.898Z,-8.50
2022-12-17T19:41:09.809Z,-8.40
2022-12-17T19:43:36.433Z,-8.50
2022-12-17T19:46:04.896Z,-8.50
2022-12-17T19:48:33.027Z,-8.60
2022-12-17T19:50:59.704Z,-8.60
2022-12-17T19:53:27.237Z,-8.60
2022-12-17T19:55:55.410Z,-8.50
2022-12-17T19:58:25.052Z,-8.50
2022-12-17T20:00:52.059Z,-8.50
2022-12-17T20:03:18.918Z,-8.50
2022-12-17T20:05:46.092Z,-8.50
2022-12-17T20:08:13.252Z,-8.60
2022-12-17T20:10:40.961Z,-8.50
2022-12-17T20:13:07.583Z,-8.40
2022-12-17T20:15:34.181Z,-8.30
2022-12-17T20:18:00.757Z,-8.50
2022-12-17T20:20:27.361Z,-8.70
2022-12-17T20:22:53.976Z,-8.60
2022-12-17T20:25:20.600Z,-8.50
2022-12-17T20:27:47.175Z,-8.50
2022-12-17T20:30:13.945Z,-8.60
2022-12-17T20:32:40.543Z,-8.60
2022-12-17T20:35:07.786Z,-8.70
2022-12-17T20:37:34.390Z,-8.50
2022-12-17T20:40:01.039Z,-8.70
2022-12-17T20:42:27.626Z,-8.60
2022-12-17T20:44:54.225Z,-8.70
2022-12-17T20:47:20.923Z,-8.50
2022-12-17T20:49:47.671Z,-8.60
2022-12-17T20:52:14.271Z,-8.70
2022-12-17T20:54:40.871Z,-8.70
2022-12-17T20:57:07.481Z,-8.70
2022-12-17T20:59:34.070Z,-8.70
2022-12-17T21:02:00.824Z,-8.70
2022-12-17T21:04:27.481Z,-8.60
2022-12-17T21:06:54.087Z,-8.70
2022-12-17T21:09:22.763Z,-8.80
2022-12-17T21:11:49.580Z,-8.70
2022-12-17T21:14:16.883Z,-8.80
2022-12-17T21:16:43.795Z,-8.80
2022-12-17T21:19:16.438Z,-8.70
2022-12-17T21:21:43.155Z,-8.70
2022-12-17T21:24:10.077Z,-8.90
2022-12-17T21:26:41.577Z,-8.90
2022-12-17T21:29:08.583Z,-9.20
2022-12-17T21:31:45.937Z,-9.30
2022-12-17T21:34:14.574Z,-9.20
2022-12-17T21:36:41.204Z,-9.20
2022-12-17T21:39:09.579Z,-9.20
2022-12-17T21:41:37.887Z,-9.10
2022-12-17T21:44:06.960Z,-8.90
2022-12-17T21:46:33.819Z,-8.90
2022-12-17T21:49:01.085Z,-9.20
2022-12-17T21:51:28.492Z,-9.30
2022-12-17T21:53:57.394Z,-9.60
2022-12-17T21:56:24.120Z,-9.60
2022-12-17T21:58:54.992Z,-9.80
2022-12-17T22:01:24.811Z,-9.90
2022-12-17T22:03:54.249Z,-9.80
2022-12-17T22:06:23.293Z,-9.40
2022-12-17T22:08:51.114Z,-9.40
2022-12-17T22:11:25.041Z,-9.30
2022-12-17T22:14:13.991Z,-9.30
2022-12-17T22:16:49.272Z,-9.30
2022-12-17T22:19:19.129Z,-9.30
2022-12-17T22:21:49.372Z,-9.50
2022-12-17T22:24:21.121Z,-9.30
2022-12-17T22:26:47.949Z,-9.50
2022-12-17T22:29:37.811Z,-9.40
2022-12-17T22:32:28.769Z,-9.40
2022-12-17T22:36:12.634Z,-9.50
2022-12-17T22:42:29.542Z,-9.40
2022-12-17T22:44:28.595Z,-9.40
2022-12-17T22:44:49.751Z,-9.70
2022-12-17T22:46:18.008Z,-9.80
2022-12-17T22:48:44.768Z,-9.90
2022-12-17T22:51:12.755Z,-9.80
2022-12-17T22:53:50.057Z,-9.90
2022-12-17T22:56:31.347Z,-9.80
2022-12-17T22:59:03.823Z,-9.90
2022-12-17T23:01:30.875Z,-9.80
2022-12-17T23:03:58.551Z,-9.70
2022-12-17T23:06:25.233Z,-9.80
2022-12-17T23:08:51.928Z,-9.80
2022-12-17T23:11:20.320Z,-9.70
2022-12-17T23:13:46.961Z,-9.70
2022-12-17T23:16:13.655Z,-9.70
2022-12-17T23:18:41.048Z,-10.00
2022-12-17T23:21:11.828Z,-10.20
2022-12-17T23:23:38.950Z,-10.00
2022-12-17T23:26:18.975Z,-9.80
2022-12-17T23:28:45.695Z,-9.70
2022-12-17T23:31:13.914Z,-9.80
2022-12-17T23:33:41.297Z,-9.70
2022-12-17T23:36:18.329Z,-9.70
2022-12-17T23:38:45.043Z,-9.70
2022-12-17T23:41:17.262Z,-9.70
2022-12-17T23:43:44.053Z,-9.80
2022-12-17T23:46:10.728Z,-9.80
2022-12-17T23:48:44.798Z,-10.00
2022-12-17T23:51:12.214Z,-9.90
2022-12-17T23:53:39.308Z,-9.80
2022-12-17T23:56:19.315Z,-10.00
2022-12-17T23:58:46.453Z,-10.10
